sensor_id;sensor_type;location;lat;lon;timestamp;P1;durP1;ratioP1;P2;durP2;ratioP2
12467;SDS011;57850;52.922;6.256;2023-12-28T00:00:07;6.03;;;2.97;;
12467;SDS011;57850;52.922;6.256;2023-12-28T00:02:34;3.40;;;2.90;;
12467;SDS011;57850;52.922;6.256;2023-12-28T00:05:01;5.32;;;3.40;;
12467;SDS011;57850;52.922;6.256;2023-12-28T00:07:29;5.38;;;3.00;;
12467;SDS011;57850;52.922;6.256;2023-12-28T00:09:56;4.18;;;2.97;;
12467;SDS011;57850;52.922;6.256;2023-12-28T00:12:23;5.13;;;3.00;;
12467;SDS011;57850;52.922;6.256;2023-12-28T00:14:50;5.70;;;3.33;;
12467;SDS011;57850;52.922;6.256;2023-12-28T00:17:18;3.90;;;3.03;;
12467;SDS011;57850;52.922;6.256;2023-12-28T00:19:45;4.25;;;3.28;;
12467;SDS011;57850;52.922;6.256;2023-12-28T00:22:12;4.05;;;3.45;;
12467;SDS011;57850;52.922;6.256;2023-12-28T00:24:39;3.33;;;2.72;;
12467;SDS011;57850;52.922;6.256;2023-12-28T00:27:05;5.63;;;3.08;;
12467;SDS011;57850;52.922;6.256;2023-12-28T00:29:32;4.15;;;2.95;;
12467;SDS011;57850;52.922;6.256;2023-12-28T00:31:59;7.63;;;3.30;;
12467;SDS011;57850;52.922;6.256;2023-12-28T00:34:27;4.78;;;3.13;;
12467;SDS011;57850;52.922;6.256;2023-12-28T00:36:54;8.50;;;3.20;;
12467;SDS011;57850;52.922;6.256;2023-12-28T00:39:20;5.68;;;3.15;;
12467;SDS011;57850;52.922;6.256;2023-12-28T00:41:47;4.50;;;3.17;;
12467;SDS011;57850;52.922;6.256;2023-12-28T00:44:14;5.50;;;3.53;;
12467;SDS011;57850;52.922;6.256;2023-12-28T00:46:40;6.35;;;3.33;;
12467;SDS011;57850;52.922;6.256;2023-12-28T00:49:07;5.50;;;3.08;;
12467;SDS011;57850;52.922;6.256;2023-12-28T00:51:35;4.68;;;3.00;;
12467;SDS011;57850;52.922;6.256;2023-12-28T00:54:03;4.55;;;3.10;;
12467;SDS011;57850;52.922;6.256;2023-12-28T00:56:29;4.55;;;3.40;;
12467;SDS011;57850;52.922;6.256;2023-12-28T00:58:56;7.45;;;3.38;;
12467;SDS011;57850;52.922;6.256;2023-12-28T01:01:22;5.57;;;3.25;;
12467;SDS011;57850;52.922;6.256;2023-12-28T01:03:49;6.93;;;3.08;;
12467;SDS011;57850;52.922;6.256;2023-12-28T01:06:16;8.32;;;3.42;;
12467;SDS011;57850;52.922;6.256;2023-12-28T01:08:44;7.07;;;3.13;;
12467;SDS011;57850;52.922;6.256;2023-12-28T01:11:10;7.32;;;3.50;;
12467;SDS011;57850;52.922;6.256;2023-12-28T01:13:37;5.18;;;3.40;;
12467;SDS011;57850;52.922;6.256;2023-12-28T01:16:04;3.70;;;2.40;;
12467;SDS011;57850;52.922;6.256;2023-12-28T01:18:31;6.05;;;3.30;;
12467;SDS011;57850;52.922;6.256;2023-12-28T01:20:58;4.57;;;2.80;;
12467;SDS011;57850;52.922;6.256;2023-12-28T01:23:25;7.35;;;3.15;;
12467;SDS011;57850;52.922;6.256;2023-12-28T01:25:53;7.38;;;3.20;;
12467;SDS011;57850;52.922;6.256;2023-12-28T01:28:21;8.52;;;3.20;;
12467;SDS011;57850;52.922;6.256;2023-12-28T01:30:48;8.80;;;4.10;;
12467;SDS011;57850;52.922;6.256;2023-12-28T01:33:15;4.68;;;3.05;;
12467;SDS011;57850;52.922;6.256;2023-12-28T01:35:41;5.50;;;3.25;;
12467;SDS011;57850;52.922;6.256;2023-12-28T01:38:08;6.93;;;2.95;;
12467;SDS011;57850;52.922;6.256;2023-12-28T01:40:35;7.45;;;4.00;;
12467;SDS011;57850;52.922;6.256;2023-12-28T01:43:03;8.45;;;3.15;;
12467;SDS011;57850;52.922;6.256;2023-12-28T01:45:29;9.25;;;3.17;;
12467;SDS011;57850;52.922;6.256;2023-12-28T01:47:57;5.43;;;3.00;;
12467;SDS011;57850;52.922;6.256;2023-12-28T01:50:25;9.27;;;3.42;;
12467;SDS011;57850;52.922;6.256;2023-12-28T01:52:59;5.68;;;2.80;;
12467;SDS011;57850;52.922;6.256;2023-12-28T01:55:29;6.80;;;3.10;;
12467;SDS011;57850;52.922;6.256;2023-12-28T01:57:57;8.85;;;2.85;;
12467;SDS011;57850;52.922;6.256;2023-12-28T02:00:25;6.90;;;3.75;;
12467;SDS011;57850;52.922;6.256;2023-12-28T02:02:52;6.43;;;2.72;;
12467;SDS011;57850;52.922;6.256;2023-12-28T02:05:20;8.15;;;3.22;;
12467;SDS011;57850;52.922;6.256;2023-12-28T02:07:47;12.52;;;3.38;;
12467;SDS011;57850;52.922;6.256;2023-12-28T02:10:14;5.70;;;2.70;;
12467;SDS011;57850;52.922;6.256;2023-12-28T02:12:40;7.75;;;2.95;;
12467;SDS011;57850;52.922;6.256;2023-12-28T02:15:08;6.82;;;2.78;;
12467;SDS011;57850;52.922;6.256;2023-12-28T02:17:37;5.88;;;3.08;;
12467;SDS011;57850;52.922;6.256;2023-12-28T02:20:09;8.88;;;3.25;;
12467;SDS011;57850;52.922;6.256;2023-12-28T02:22:37;6.93;;;3.20;;
12467;SDS011;57850;52.922;6.256;2023-12-28T02:25:07;11.75;;;3.75;;
12467;SDS011;57850;52.922;6.256;2023-12-28T02:27:35;9.63;;;3.25;;
12467;SDS011;57850;52.922;6.256;2023-12-28T02:30:05;10.95;;;3.15;;
12467;SDS011;57850;52.922;6.256;2023-12-28T02:32:39;11.00;;;3.30;;
12467;SDS011;57850;52.922;6.256;2023-12-28T02:35:18;8.05;;;3.08;;
12467;SDS011;57850;52.922;6.256;2023-12-28T02:37:50;6.60;;;2.95;;
12467;SDS011;57850;52.922;6.256;2023-12-28T02:40:21;9.23;;;2.70;;
12467;SDS011;57850;52.922;6.256;2023-12-28T02:42:49;4.80;;;2.92;;
12467;SDS011;57850;52.922;6.256;2023-12-28T02:45:17;8.35;;;3.15;;
12467;SDS011;57850;52.922;6.256;2023-12-28T02:47:44;12.52;;;3.35;;
12467;SDS011;57850;52.922;6.256;2023-12-28T02:50:10;4.85;;;2.50;;
12467;SDS011;57850;52.922;6.256;2023-12-28T02:52:37;3.88;;;2.47;;
12467;SDS011;57850;52.922;6.256;2023-12-28T02:55:03;6.57;;;2.53;;
12467;SDS011;57850;52.922;6.256;2023-12-28T02:57:32;6.78;;;2.70;;
12467;SDS011;57850;52.922;6.256;2023-12-28T03:00:02;10.00;;;3.13;;
12467;SDS011;57850;52.922;6.256;2023-12-28T03:02:31;6.10;;;2.35;;
12467;SDS011;57850;52.922;6.256;2023-12-28T03:04:57;6.57;;;2.53;;
12467;SDS011;57850;52.922;6.256;2023-12-28T03:07:24;8.20;;;2.53;;
12467;SDS011;57850;52.922;6.256;2023-12-28T03:09:51;8.25;;;2.53;;
12467;SDS011;57850;52.922;6.256;2023-12-28T03:12:17;8.93;;;2.22;;
12467;SDS011;57850;52.922;6.256;2023-12-28T03:14:45;12.65;;;2.90;;
12467;SDS011;57850;52.922;6.256;2023-12-28T03:17:12;6.28;;;2.47;;
12467;SDS011;57850;52.922;6.256;2023-12-28T03:19:38;8.85;;;2.47;;
12467;SDS011;57850;52.922;6.256;2023-12-28T03:22:05;8.68;;;2.22;;
12467;SDS011;57850;52.922;6.256;2023-12-28T03:24:32;10.23;;;2.95;;
12467;SDS011;57850;52.922;6.256;2023-12-28T03:26:59;5.18;;;2.67;;
12467;SDS011;57850;52.922;6.256;2023-12-28T03:29:26;5.63;;;2.92;;
12467;SDS011;57850;52.922;6.256;2023-12-28T03:31:55;5.28;;;2.10;;
12467;SDS011;57850;52.922;6.256;2023-12-28T03:34:22;9.90;;;2.92;;
12467;SDS011;57850;52.922;6.256;2023-12-28T03:36:49;5.88;;;2.30;;
12467;SDS011;57850;52.922;6.256;2023-12-28T03:39:15;8.73;;;2.70;;
12467;SDS011;57850;52.922;6.256;2023-12-28T03:41:42;9.50;;;2.70;;
12467;SDS011;57850;52.922;6.256;2023-12-28T03:44:08;5.43;;;3.00;;
12467;SDS011;57850;52.922;6.256;2023-12-28T03:46:35;7.05;;;2.58;;
12467;SDS011;57850;52.922;6.256;2023-12-28T03:49:03;8.75;;;2.70;;
12467;SDS011;57850;52.922;6.256;2023-12-28T03:51:30;8.32;;;2.47;;
12467;SDS011;57850;52.922;6.256;2023-12-28T03:53:56;6.13;;;3.50;;
12467;SDS011;57850;52.922;6.256;2023-12-28T03:56:23;8.70;;;3.63;;
12467;SDS011;57850;52.922;6.256;2023-12-28T03:58:51;9.75;;;3.00;;
12467;SDS011;57850;52.922;6.256;2023-12-28T04:01:18;6.57;;;3.08;;
12467;SDS011;57850;52.922;6.256;2023-12-28T04:03:45;9.73;;;3.22;;
12467;SDS011;57850;52.922;6.256;2023-12-28T04:06:14;9.05;;;2.67;;
12467;SDS011;57850;52.922;6.256;2023-12-28T04:08:41;8.05;;;2.95;;
12467;SDS011;57850;52.922;6.256;2023-12-28T04:11:08;6.18;;;2.83;;
12467;SDS011;57850;52.922;6.256;2023-12-28T04:13:35;12.95;;;2.95;;
12467;SDS011;57850;52.922;6.256;2023-12-28T04:16:02;9.07;;;2.50;;
12467;SDS011;57850;52.922;6.256;2023-12-28T04:18:29;8.02;;;2.63;;
12467;SDS011;57850;52.922;6.256;2023-12-28T04:20:56;7.15;;;2.95;;
12467;SDS011;57850;52.922;6.256;2023-12-28T04:23:24;7.75;;;2.80;;
12467;SDS011;57850;52.922;6.256;2023-12-28T04:25:51;11.50;;;3.10;;
12467;SDS011;57850;52.922;6.256;2023-12-28T04:28:18;8.88;;;3.20;;
12467;SDS011;57850;52.922;6.256;2023-12-28T04:30:44;10.52;;;3.08;;
12467;SDS011;57850;52.922;6.256;2023-12-28T04:33:11;6.50;;;2.55;;
12467;SDS011;57850;52.922;6.256;2023-12-28T04:35:38;11.75;;;3.10;;
12467;SDS011;57850;52.922;6.256;2023-12-28T04:38:08;8.93;;;2.80;;
12467;SDS011;57850;52.922;6.256;2023-12-28T04:40:37;12.80;;;3.67;;
12467;SDS011;57850;52.922;6.256;2023-12-28T04:43:04;10.77;;;3.60;;
12467;SDS011;57850;52.922;6.256;2023-12-28T04:45:31;7.88;;;2.30;;
12467;SDS011;57850;52.922;6.256;2023-12-28T04:47:58;11.07;;;3.30;;
12467;SDS011;57850;52.922;6.256;2023-12-28T04:50:25;7.97;;;3.15;;
12467;SDS011;57850;52.922;6.256;2023-12-28T04:52:52;4.95;;;2.35;;
12467;SDS011;57850;52.922;6.256;2023-12-28T04:55:18;10.73;;;3.33;;
12467;SDS011;57850;52.922;6.256;2023-12-28T04:57:47;11.07;;;3.53;;
12467;SDS011;57850;52.922;6.256;2023-12-28T05:00:16;7.40;;;2.97;;
12467;SDS011;57850;52.922;6.256;2023-12-28T05:02:43;8.52;;;2.67;;
12467;SDS011;57850;52.922;6.256;2023-12-28T05:05:11;7.85;;;2.50;;
12467;SDS011;57850;52.922;6.256;2023-12-28T05:07:38;6.03;;;2.95;;
12467;SDS011;57850;52.922;6.256;2023-12-28T05:10:05;7.55;;;2.50;;
12467;SDS011;57850;52.922;6.256;2023-12-28T05:12:34;7.43;;;3.00;;
12467;SDS011;57850;52.922;6.256;2023-12-28T05:15:02;10.20;;;2.55;;
12467;SDS011;57850;52.922;6.256;2023-12-28T05:17:30;11.65;;;2.58;;
12467;SDS011;57850;52.922;6.256;2023-12-28T05:19:56;6.88;;;2.80;;
12467;SDS011;57850;52.922;6.256;2023-12-28T05:22:23;7.40;;;2.60;;
12467;SDS011;57850;52.922;6.256;2023-12-28T05:24:50;7.05;;;2.30;;
12467;SDS011;57850;52.922;6.256;2023-12-28T05:27:17;4.60;;;2.35;;
12467;SDS011;57850;52.922;6.256;2023-12-28T05:29:43;7.18;;;2.65;;
12467;SDS011;57850;52.922;6.256;2023-12-28T05:32:15;6.57;;;2.50;;
12467;SDS011;57850;52.922;6.256;2023-12-28T05:34:42;8.10;;;2.53;;
12467;SDS011;57850;52.922;6.256;2023-12-28T05:37:09;7.55;;;2.35;;
12467;SDS011;57850;52.922;6.256;2023-12-28T05:39:35;5.50;;;2.58;;
12467;SDS011;57850;52.922;6.256;2023-12-28T05:42:02;5.05;;;2.10;;
12467;SDS011;57850;52.922;6.256;2023-12-28T05:44:29;7.75;;;2.95;;
12467;SDS011;57850;52.922;6.256;2023-12-28T05:46:55;5.65;;;2.35;;
12467;SDS011;57850;52.922;6.256;2023-12-28T05:49:26;12.57;;;3.75;;
12467;SDS011;57850;52.922;6.256;2023-12-28T05:51:53;10.30;;;2.70;;
12467;SDS011;57850;52.922;6.256;2023-12-28T05:54:20;13.45;;;2.80;;
12467;SDS011;57850;52.922;6.256;2023-12-28T05:56:47;8.35;;;2.95;;
12467;SDS011;57850;52.922;6.256;2023-12-28T05:59:13;9.15;;;3.17;;
12467;SDS011;57850;52.922;6.256;2023-12-28T06:01:46;11.30;;;3.15;;
12467;SDS011;57850;52.922;6.256;2023-12-28T06:04:12;7.85;;;2.22;;
12467;SDS011;57850;52.922;6.256;2023-12-28T06:06:40;12.82;;;3.72;;
12467;SDS011;57850;52.922;6.256;2023-12-28T06:09:07;6.60;;;2.90;;
12467;SDS011;57850;52.922;6.256;2023-12-28T06:11:34;10.35;;;2.97;;
12467;SDS011;57850;52.922;6.256;2023-12-28T06:14:00;16.48;;;4.60;;
12467;SDS011;57850;52.922;6.256;2023-12-28T06:16:27;15.85;;;3.55;;
12467;SDS011;57850;52.922;6.256;2023-12-28T06:18:57;15.15;;;3.03;;
12467;SDS011;57850;52.922;6.256;2023-12-28T06:21:24;12.50;;;2.50;;
12467;SDS011;57850;52.922;6.256;2023-12-28T06:23:52;6.63;;;2.88;;
12467;SDS011;57850;52.922;6.256;2023-12-28T06:26:19;9.05;;;2.80;;
12467;SDS011;57850;52.922;6.256;2023-12-28T06:28:45;13.10;;;3.97;;
12467;SDS011;57850;52.922;6.256;2023-12-28T06:31:12;12.30;;;3.40;;
12467;SDS011;57850;52.922;6.256;2023-12-28T06:33:38;8.25;;;2.60;;
12467;SDS011;57850;52.922;6.256;2023-12-28T06:36:11;8.35;;;2.80;;
12467;SDS011;57850;52.922;6.256;2023-12-28T06:38:38;11.73;;;3.70;;
12467;SDS011;57850;52.922;6.256;2023-12-28T06:41:13;13.43;;;3.08;;
12467;SDS011;57850;52.922;6.256;2023-12-28T06:43:39;12.38;;;3.13;;
12467;SDS011;57850;52.922;6.256;2023-12-28T06:46:06;9.70;;;3.15;;
12467;SDS011;57850;52.922;6.256;2023-12-28T06:48:33;12.15;;;3.13;;
12467;SDS011;57850;52.922;6.256;2023-12-28T06:51:00;11.43;;;2.72;;
12467;SDS011;57850;52.922;6.256;2023-12-28T06:53:27;11.68;;;2.80;;
12467;SDS011;57850;52.922;6.256;2023-12-28T06:55:54;10.80;;;3.22;;
12467;SDS011;57850;52.922;6.256;2023-12-28T06:58:22;17.20;;;3.20;;
12467;SDS011;57850;52.922;6.256;2023-12-28T07:00:49;8.00;;;2.90;;
12467;SDS011;57850;52.922;6.256;2023-12-28T07:03:15;13.05;;;3.33;;
12467;SDS011;57850;52.922;6.256;2023-12-28T07:05:42;10.10;;;2.63;;
12467;SDS011;57850;52.922;6.256;2023-12-28T07:08:09;11.95;;;3.47;;
12467;SDS011;57850;52.922;6.256;2023-12-28T07:10:35;14.18;;;3.25;;
12467;SDS011;57850;52.922;6.256;2023-12-28T07:13:02;12.32;;;3.17;;
12467;SDS011;57850;52.922;6.256;2023-12-28T07:15:30;11.70;;;2.88;;
12467;SDS011;57850;52.922;6.256;2023-12-28T07:18:00;10.32;;;3.38;;
12467;SDS011;57850;52.922;6.256;2023-12-28T07:20:26;11.48;;;3.17;;
12467;SDS011;57850;52.922;6.256;2023-12-28T07:22:53;13.90;;;4.18;;
12467;SDS011;57850;52.922;6.256;2023-12-28T07:25:19;13.63;;;2.92;;
12467;SDS011;57850;52.922;6.256;2023-12-28T07:27:46;11.38;;;3.45;;
12467;SDS011;57850;52.922;6.256;2023-12-28T07:30:13;12.95;;;2.92;;
12467;SDS011;57850;52.922;6.256;2023-12-28T07:32:43;9.25;;;2.85;;
12467;SDS011;57850;52.922;6.256;2023-12-28T07:35:10;14.90;;;4.35;;
12467;SDS011;57850;52.922;6.256;2023-12-28T07:37:36;10.30;;;2.92;;
12467;SDS011;57850;52.922;6.256;2023-12-28T07:40:03;8.02;;;3.17;;
12467;SDS011;57850;52.922;6.256;2023-12-28T07:42:31;15.02;;;3.13;;
12467;SDS011;57850;52.922;6.256;2023-12-28T07:44:57;12.73;;;3.40;;
12467;SDS011;57850;52.922;6.256;2023-12-28T07:47:23;11.77;;;3.13;;
12467;SDS011;57850;52.922;6.256;2023-12-28T07:49:52;19.05;;;4.32;;
12467;SDS011;57850;52.922;6.256;2023-12-28T07:52:18;12.63;;;2.95;;
12467;SDS011;57850;52.922;6.256;2023-12-28T07:54:45;14.48;;;3.63;;
12467;SDS011;57850;52.922;6.256;2023-12-28T07:57:11;16.15;;;3.65;;
12467;SDS011;57850;52.922;6.256;2023-12-28T07:59:38;10.98;;;3.72;;
12467;SDS011;57850;52.922;6.256;2023-12-28T08:02:05;13.88;;;3.10;;
12467;SDS011;57850;52.922;6.256;2023-12-28T08:04:33;15.18;;;3.97;;
12467;SDS011;57850;52.922;6.256;2023-12-28T08:07:01;16.98;;;3.65;;
12467;SDS011;57850;52.922;6.256;2023-12-28T08:09:29;11.48;;;3.40;;
12467;SDS011;57850;52.922;6.256;2023-12-28T08:11:55;15.85;;;4.00;;
12467;SDS011;57850;52.922;6.256;2023-12-28T08:14:22;12.95;;;3.40;;
12467;SDS011;57850;52.922;6.256;2023-12-28T08:16:49;15.98;;;3.78;;
12467;SDS011;57850;52.922;6.256;2023-12-28T08:19:15;16.55;;;3.13;;
12467;SDS011;57850;52.922;6.256;2023-12-28T08:21:42;20.85;;;4.22;;
12467;SDS011;57850;52.922;6.256;2023-12-28T08:24:13;13.52;;;4.03;;
12467;SDS011;57850;52.922;6.256;2023-12-28T08:26:41;18.20;;;4.03;;
12467;SDS011;57850;52.922;6.256;2023-12-28T08:29:08;16.50;;;4.15;;
12467;SDS011;57850;52.922;6.256;2023-12-28T08:31:34;18.88;;;3.88;;
12467;SDS011;57850;52.922;6.256;2023-12-28T08:34:01;13.77;;;3.65;;
12467;SDS011;57850;52.922;6.256;2023-12-28T08:36:28;8.80;;;3.70;;
12467;SDS011;57850;52.922;6.256;2023-12-28T08:38:54;16.10;;;3.15;;
12467;SDS011;57850;52.922;6.256;2023-12-28T08:41:22;15.27;;;3.50;;
12467;SDS011;57850;52.922;6.256;2023-12-28T08:43:50;16.60;;;3.47;;
12467;SDS011;57850;52.922;6.256;2023-12-28T08:46:18;21.75;;;3.78;;
12467;SDS011;57850;52.922;6.256;2023-12-28T08:48:44;16.20;;;3.78;;
12467;SDS011;57850;52.922;6.256;2023-12-28T08:51:11;14.25;;;3.72;;
12467;SDS011;57850;52.922;6.256;2023-12-28T08:53:39;11.20;;;3.92;;
12467;SDS011;57850;52.922;6.256;2023-12-28T08:56:15;20.13;;;4.20;;
12467;SDS011;57850;52.922;6.256;2023-12-28T08:58:44;11.68;;;3.30;;
12467;SDS011;57850;52.922;6.256;2023-12-28T09:01:15;11.68;;;4.20;;
12467;SDS011;57850;52.922;6.256;2023-12-28T09:03:42;16.50;;;3.55;;
12467;SDS011;57850;52.922;6.256;2023-12-28T09:06:09;19.60;;;5.15;;
12467;SDS011;57850;52.922;6.256;2023-12-28T09:08:36;15.15;;;3.67;;
12467;SDS011;57850;52.922;6.256;2023-12-28T09:11:02;16.27;;;4.38;;
12467;SDS011;57850;52.922;6.256;2023-12-28T09:13:29;11.52;;;3.40;;
12467;SDS011;57850;52.922;6.256;2023-12-28T09:15:58;16.75;;;4.35;;
12467;SDS011;57850;52.922;6.256;2023-12-28T09:18:25;18.27;;;4.15;;
12467;SDS011;57850;52.922;6.256;2023-12-28T09:20:52;15.20;;;4.13;;
12467;SDS011;57850;52.922;6.256;2023-12-28T09:23:18;20.67;;;3.80;;
12467;SDS011;57850;52.922;6.256;2023-12-28T09:25:45;12.77;;;3.30;;
12467;SDS011;57850;52.922;6.256;2023-12-28T09:28:12;19.83;;;4.50;;
12467;SDS011;57850;52.922;6.256;2023-12-28T09:30:39;17.00;;;3.88;;
12467;SDS011;57850;52.922;6.256;2023-12-28T09:33:07;11.63;;;3.17;;
12467;SDS011;57850;52.922;6.256;2023-12-28T09:35:33;13.52;;;3.53;;
12467;SDS011;57850;52.922;6.256;2023-12-28T09:38:01;19.05;;;4.05;;
12467;SDS011;57850;52.922;6.256;2023-12-28T09:40:27;17.58;;;4.22;;
12467;SDS011;57850;52.922;6.256;2023-12-28T09:42:57;17.55;;;3.60;;
12467;SDS011;57850;52.922;6.256;2023-12-28T09:45:30;21.83;;;4.32;;
12467;SDS011;57850;52.922;6.256;2023-12-28T09:47:57;18.00;;;3.60;;
12467;SDS011;57850;52.922;6.256;2023-12-28T09:50:26;20.70;;;4.03;;
12467;SDS011;57850;52.922;6.256;2023-12-28T09:52:53;14.65;;;3.80;;
12467;SDS011;57850;52.922;6.256;2023-12-28T09:55:20;15.60;;;3.35;;
12467;SDS011;57850;52.922;6.256;2023-12-28T09:57:47;16.60;;;3.38;;
12467;SDS011;57850;52.922;6.256;2023-12-28T10:00:14;18.63;;;4.65;;
12467;SDS011;57850;52.922;6.256;2023-12-28T10:02:43;16.33;;;3.28;;
12467;SDS011;57850;52.922;6.256;2023-12-28T10:05:12;24.15;;;4.53;;
12467;SDS011;57850;52.922;6.256;2023-12-28T10:07:41;20.20;;;3.58;;
12467;SDS011;57850;52.922;6.256;2023-12-28T10:10:08;23.13;;;3.85;;
12467;SDS011;57850;52.922;6.256;2023-12-28T10:12:35;13.60;;;4.05;;
12467;SDS011;57850;52.922;6.256;2023-12-28T10:15:03;14.63;;;3.92;;
12467;SDS011;57850;52.922;6.256;2023-12-28T10:17:32;17.00;;;4.10;;
12467;SDS011;57850;52.922;6.256;2023-12-28T10:19:59;12.57;;;3.90;;
12467;SDS011;57850;52.922;6.256;2023-12-28T10:22:29;14.60;;;3.70;;
12467;SDS011;57850;52.922;6.256;2023-12-28T10:25:03;14.07;;;2.90;;
12467;SDS011;57850;52.922;6.256;2023-12-28T10:27:30;15.23;;;3.15;;
12467;SDS011;57850;52.922;6.256;2023-12-28T10:29:58;15.52;;;3.67;;
12467;SDS011;57850;52.922;6.256;2023-12-28T10:32:25;20.80;;;3.47;;
12467;SDS011;57850;52.922;6.256;2023-12-28T10:34:52;14.02;;;3.75;;
12467;SDS011;57850;52.922;6.256;2023-12-28T10:37:20;15.35;;;4.43;;
12467;SDS011;57850;52.922;6.256;2023-12-28T10:39:48;9.88;;;3.85;;
12467;SDS011;57850;52.922;6.256;2023-12-28T10:42:28;21.67;;;4.63;;
12467;SDS011;57850;52.922;6.256;2023-12-28T10:45:00;17.60;;;3.38;;
12467;SDS011;57850;52.922;6.256;2023-12-28T10:47:31;18.90;;;4.32;;
12467;SDS011;57850;52.922;6.256;2023-12-28T10:50:00;14.93;;;3.28;;
12467;SDS011;57850;52.922;6.256;2023-12-28T10:52:31;11.68;;;3.60;;
12467;SDS011;57850;52.922;6.256;2023-12-28T10:55:11;14.93;;;3.88;;
12467;SDS011;57850;52.922;6.256;2023-12-28T10:57:52;9.75;;;3.38;;
12467;SDS011;57850;52.922;6.256;2023-12-28T11:00:28;16.70;;;3.08;;
12467;SDS011;57850;52.922;6.256;2023-12-28T11:03:02;14.63;;;3.60;;
12467;SDS011;57850;52.922;6.256;2023-12-28T11:05:30;12.05;;;3.60;;
12467;SDS011;57850;52.922;6.256;2023-12-28T11:07:59;16.02;;;4.65;;
12467;SDS011;57850;52.922;6.256;2023-12-28T11:10:26;18.35;;;4.93;;
12467;SDS011;57850;52.922;6.256;2023-12-28T11:12:57;11.13;;;3.40;;
12467;SDS011;57850;52.922;6.256;2023-12-28T11:15:25;19.33;;;4.20;;
12467;SDS011;57850;52.922;6.256;2023-12-28T11:17:53;15.20;;;3.40;;
12467;SDS011;57850;52.922;6.256;2023-12-28T11:20:19;10.32;;;3.75;;
12467;SDS011;57850;52.922;6.256;2023-12-28T11:22:46;13.60;;;3.53;;
12467;SDS011;57850;52.922;6.256;2023-12-28T11:25:15;13.43;;;3.28;;
12467;SDS011;57850;52.922;6.256;2023-12-28T11:27:43;16.95;;;3.88;;
12467;SDS011;57850;52.922;6.256;2023-12-28T11:30:14;14.68;;;3.60;;
12467;SDS011;57850;52.922;6.256;2023-12-28T11:32:41;17.05;;;3.80;;
12467;SDS011;57850;52.922;6.256;2023-12-28T11:35:10;13.40;;;3.45;;
12467;SDS011;57850;52.922;6.256;2023-12-28T11:37:38;15.82;;;3.63;;
12467;SDS011;57850;52.922;6.256;2023-12-28T11:40:09;16.02;;;3.20;;
12467;SDS011;57850;52.922;6.256;2023-12-28T11:42:46;14.55;;;3.47;;
12467;SDS011;57850;52.922;6.256;2023-12-28T11:45:16;15.13;;;4.22;;
12467;SDS011;57850;52.922;6.256;2023-12-28T11:47:43;11.80;;;3.92;;
12467;SDS011;57850;52.922;6.256;2023-12-28T11:50:10;16.77;;;3.53;;
12467;SDS011;57850;52.922;6.256;2023-12-28T11:52:37;18.23;;;4.05;;
12467;SDS011;57850;52.922;6.256;2023-12-28T11:55:04;18.70;;;3.25;;
12467;SDS011;57850;52.922;6.256;2023-12-28T11:57:31;16.38;;;5.15;;
12467;SDS011;57850;52.922;6.256;2023-12-28T11:59:59;15.55;;;3.75;;
12467;SDS011;57850;52.922;6.256;2023-12-28T12:02:28;17.08;;;3.60;;
12467;SDS011;57850;52.922;6.256;2023-12-28T12:04:55;19.45;;;3.50;;
12467;SDS011;57850;52.922;6.256;2023-12-28T12:07:23;18.27;;;3.63;;
12467;SDS011;57850;52.922;6.256;2023-12-28T12:09:54;20.73;;;4.03;;
12467;SDS011;57850;52.922;6.256;2023-12-28T12:12:21;12.65;;;3.75;;
12467;SDS011;57850;52.922;6.256;2023-12-28T12:14:48;16.92;;;4.07;;
12467;SDS011;57850;52.922;6.256;2023-12-28T12:17:15;13.73;;;3.63;;
12467;SDS011;57850;52.922;6.256;2023-12-28T12:19:43;16.50;;;4.45;;
12467;SDS011;57850;52.922;6.256;2023-12-28T12:22:14;21.05;;;3.72;;
12467;SDS011;57850;52.922;6.256;2023-12-28T12:24:41;16.35;;;4.30;;
12467;SDS011;57850;52.922;6.256;2023-12-28T12:27:10;22.67;;;4.38;;
12467;SDS011;57850;52.922;6.256;2023-12-28T12:29:36;16.15;;;3.30;;
12467;SDS011;57850;52.922;6.256;2023-12-28T12:32:03;13.45;;;4.22;;
12467;SDS011;57850;52.922;6.256;2023-12-28T12:34:30;18.58;;;3.30;;
12467;SDS011;57850;52.922;6.256;2023-12-28T12:36:58;17.33;;;3.33;;
12467;SDS011;57850;52.922;6.256;2023-12-28T12:39:25;15.20;;;4.20;;
12467;SDS011;57850;52.922;6.256;2023-12-28T12:41:52;18.20;;;4.82;;
12467;SDS011;57850;52.922;6.256;2023-12-28T12:44:22;18.42;;;3.65;;
12467;SDS011;57850;52.922;6.256;2023-12-28T12:46:56;20.38;;;4.13;;
12467;SDS011;57850;52.922;6.256;2023-12-28T12:49:22;18.60;;;3.90;;
12467;SDS011;57850;52.922;6.256;2023-12-28T12:51:49;20.30;;;3.97;;
12467;SDS011;57850;52.922;6.256;2023-12-28T12:54:18;22.23;;;5.35;;
12467;SDS011;57850;52.922;6.256;2023-12-28T12:56:44;20.58;;;3.65;;
12467;SDS011;57850;52.922;6.256;2023-12-28T12:59:11;19.02;;;3.67;;
12467;SDS011;57850;52.922;6.256;2023-12-28T13:01:41;15.57;;;3.50;;
12467;SDS011;57850;52.922;6.256;2023-12-28T13:04:07;16.60;;;3.78;;
12467;SDS011;57850;52.922;6.256;2023-12-28T13:06:34;16.80;;;3.53;;
12467;SDS011;57850;52.922;6.256;2023-12-28T13:09:01;13.00;;;3.50;;
12467;SDS011;57850;52.922;6.256;2023-12-28T13:11:29;14.15;;;4.00;;
12467;SDS011;57850;52.922;6.256;2023-12-28T13:13:56;15.35;;;4.13;;
12467;SDS011;57850;52.922;6.256;2023-12-28T13:16:23;12.02;;;3.40;;
12467;SDS011;57850;52.922;6.256;2023-12-28T13:18:49;17.67;;;4.72;;
12467;SDS011;57850;52.922;6.256;2023-12-28T13:21:16;15.15;;;3.95;;
12467;SDS011;57850;52.922;6.256;2023-12-28T13:23:43;19.05;;;3.47;;
12467;SDS011;57850;52.922;6.256;2023-12-28T13:26:09;16.40;;;3.67;;
12467;SDS011;57850;52.922;6.256;2023-12-28T13:28:37;18.38;;;2.88;;
12467;SDS011;57850;52.922;6.256;2023-12-28T13:31:04;21.27;;;5.88;;
12467;SDS011;57850;52.922;6.256;2023-12-28T13:33:31;19.80;;;3.88;;
12467;SDS011;57850;52.922;6.256;2023-12-28T13:35:57;13.52;;;3.92;;
12467;SDS011;57850;52.922;6.256;2023-12-28T13:38:24;21.30;;;4.00;;
12467;SDS011;57850;52.922;6.256;2023-12-28T13:40:52;23.92;;;5.22;;
12467;SDS011;57850;52.922;6.256;2023-12-28T13:43:19;11.48;;;3.60;;
12467;SDS011;57850;52.922;6.256;2023-12-28T13:45:47;14.50;;;4.28;;
12467;SDS011;57850;52.922;6.256;2023-12-28T13:48:13;16.98;;;4.00;;
12467;SDS011;57850;52.922;6.256;2023-12-28T13:50:40;17.80;;;5.18;;
12467;SDS011;57850;52.922;6.256;2023-12-28T13:53:07;18.73;;;3.45;;
12467;SDS011;57850;52.922;6.256;2023-12-28T13:55:34;16.50;;;3.13;;
12467;SDS011;57850;52.922;6.256;2023-12-28T13:58:01;18.40;;;4.07;;
12467;SDS011;57850;52.922;6.256;2023-12-28T14:00:29;15.95;;;4.25;;
12467;SDS011;57850;52.922;6.256;2023-12-28T14:02:57;14.77;;;3.45;;
12467;SDS011;57850;52.922;6.256;2023-12-28T14:05:24;16.42;;;4.15;;
12467;SDS011;57850;52.922;6.256;2023-12-28T14:07:51;17.98;;;3.95;;
12467;SDS011;57850;52.922;6.256;2023-12-28T14:10:17;18.60;;;4.05;;
12467;SDS011;57850;52.922;6.256;2023-12-28T14:12:44;13.77;;;4.10;;
12467;SDS011;57850;52.922;6.256;2023-12-28T14:15:11;14.18;;;3.25;;
12467;SDS011;57850;52.922;6.256;2023-12-28T14:17:40;13.80;;;3.28;;
12467;SDS011;57850;52.922;6.256;2023-12-28T14:20:09;19.15;;;4.35;;
12467;SDS011;57850;52.922;6.256;2023-12-28T14:22:36;10.20;;;3.55;;
12467;SDS011;57850;52.922;6.256;2023-12-28T14:25:04;12.13;;;4.53;;
12467;SDS011;57850;52.922;6.256;2023-12-28T14:27:31;18.25;;;4.18;;
12467;SDS011;57850;52.922;6.256;2023-12-28T14:29:58;14.88;;;4.28;;
12467;SDS011;57850;52.922;6.256;2023-12-28T14:32:28;16.08;;;3.92;;
12467;SDS011;57850;52.922;6.256;2023-12-28T14:34:55;16.23;;;3.95;;
12467;SDS011;57850;52.922;6.256;2023-12-28T14:37:24;12.40;;;3.35;;
12467;SDS011;57850;52.922;6.256;2023-12-28T14:39:50;15.45;;;3.55;;
12467;SDS011;57850;52.922;6.256;2023-12-28T14:42:17;19.45;;;3.60;;